PWSweather.com
Personal Weather Stations
Station Observations
METEACHIET
Pas De Calais, AchietLeGrandFR

Pas De CalaisAchietLeGrandFR

Lat: 50.1302778, Lon: 2.78333333

Elevation: 406.8

Station Type: Davis VP2

http://meteo-achiet.shost.ca/index.php

Latest ConditionsUpdated 4:20:00 PM GMT+01:01 Friday, Aug 17, 2018
Currently Today's Max Today's Min Today's Average
Temperature 75.0°F23.9°C 76.3°F24.6°C 55.4°F13.0°C 64.4°F18.0°C
Dew Point 55.7°F13.2°C 60.2°F15.7°C 53.1°F11.7°C 56.2°F13.4°C
Winds 4.0 mph NW6.4 kmh NW 5.0 mph -8.0 kmh - - 2.2 mph 3.5 kmh
Wind Gusts 9.0 mph14.5 kmh 11.0 mph17.7 kmh - -
Humidity 51% 95% 47% 77%
Pressure 30.12 in1020.0 mb 30.14 in1020.7 mb 30.00 in1015.9 mb -
Precipitation - 0.05 in1.3 mm - -
Hour Temp Dew Point Humidity Winds Wind Gusts Pressure Precip Precip Rate Daily Precip Total
04:20 PM 75.0°F23.9°C 55.7°F13.2°C 51% 4.0 mph NW6.4 kmh NW 9.0 mph14.5 kmh 30.12 in1020.0 mb 0.00 in0.0 mm 0.00 in0.0 mm 0.05 in1.3 mm
04:10 PM 75.4°F24.1°C 55.4°F13.0°C 50% 4.0 mph NW6.4 kmh NW 8.0 mph12.9 kmh 30.12 in1020.0 mb 0.00 in0.0 mm 0.00 in0.0 mm 0.05 in1.3 mm
04:00 PM 76.1°F24.5°C 56.1°F13.4°C 50% 3.0 mph NW4.8 kmh NW 10.0 mph16.1 kmh 30.12 in1020.0 mb 0.00 in0.0 mm 0.00 in0.0 mm 0.05 in1.3 mm
03:50 PM 75.9°F24.4°C 55.4°F13.0°C 49% 5.0 mph NW8.0 kmh NW 10.0 mph16.1 kmh 30.12 in1020.0 mb 0.00 in0.0 mm 0.00 in0.0 mm 0.05 in1.3 mm
03:40 PM 76.3°F24.6°C 55.1°F12.8°C 48% 4.0 mph NW6.4 kmh NW 10.0 mph16.1 kmh 30.12 in1020.0 mb 0.00 in0.0 mm 0.00 in0.0 mm 0.05 in1.3 mm
03:30 PM 75.6°F24.2°C 53.9°F12.2°C 47% 3.0 mph NW4.8 kmh NW 7.0 mph11.3 kmh 30.12 in1020.0 mb 0.00 in0.0 mm 0.00 in0.0 mm 0.05 in1.3 mm
03:20 PM 75.2°F24.0°C 54.2°F12.3°C 48% 4.0 mph NW6.4 kmh NW 9.0 mph14.5 kmh 30.13 in1020.3 mb 0.00 in0.0 mm 0.00 in0.0 mm 0.05 in1.3 mm
03:10 PM 74.7°F23.7°C 53.1°F11.7°C 47% 3.0 mph NW4.8 kmh NW 8.0 mph12.9 kmh 30.13 in1020.3 mb 0.00 in0.0 mm 0.00 in0.0 mm 0.05 in1.3 mm
03:00 PM 74.7°F23.7°C 54.2°F12.3°C 49% 4.0 mph NW6.4 kmh NW 8.0 mph12.9 kmh 30.13 in1020.3 mb 0.00 in0.0 mm 0.00 in0.0 mm 0.05 in1.3 mm
02:50 PM 74.8°F23.8°C 53.8°F12.1°C 48% 3.0 mph WNW4.8 kmh WNW 8.0 mph12.9 kmh 30.13 in1020.3 mb 0.00 in0.0 mm 0.00 in0.0 mm 0.05 in1.3 mm
02:40 PM 74.5°F23.6°C 54.6°F12.6°C 50% 4.0 mph WNW6.4 kmh WNW 9.0 mph14.5 kmh 30.13 in1020.3 mb 0.00 in0.0 mm 0.00 in0.0 mm 0.05 in1.3 mm
02:30 PM 74.7°F23.7°C 54.2°F12.3°C 49% 4.0 mph NW6.4 kmh NW 8.0 mph12.9 kmh 30.13 in1020.3 mb 0.00 in0.0 mm 0.00 in0.0 mm 0.05 in1.3 mm
02:20 PM 74.8°F23.8°C 55.5°F13.1°C 51% 3.0 mph NW4.8 kmh NW 9.0 mph14.5 kmh 30.13 in1020.3 mb 0.00 in0.0 mm 0.00 in0.0 mm 0.05 in1.3 mm
02:10 PM 74.3°F23.5°C 53.3°F11.8°C 48% 3.0 mph NW4.8 kmh NW 8.0 mph12.9 kmh 30.14 in1020.7 mb 0.00 in0.0 mm 0.00 in0.0 mm 0.05 in1.3 mm
02:00 PM 74.1°F23.4°C 54.8°F12.7°C 51% 4.0 mph NW6.4 kmh NW 9.0 mph14.5 kmh 30.14 in1020.7 mb 0.00 in0.0 mm 0.00 in0.0 mm 0.05 in1.3 mm
01:50 PM 74.8°F23.8°C 56.0°F13.3°C 52% 4.0 mph NW6.4 kmh NW 10.0 mph16.1 kmh 30.13 in1020.3 mb 0.00 in0.0 mm 0.00 in0.0 mm 0.05 in1.3 mm
01:40 PM 74.1°F23.4°C 56.9°F13.8°C 55% 2.0 mph NW3.2 kmh NW 5.0 mph8.0 kmh 30.13 in1020.3 mb 0.00 in0.0 mm 0.00 in0.0 mm 0.05 in1.3 mm
01:30 PM 73.8°F23.2°C 54.5°F12.5°C 51% 3.0 mph NW4.8 kmh NW 7.0 mph11.3 kmh 30.13 in1020.3 mb 0.00 in0.0 mm 0.00 in0.0 mm 0.05 in1.3 mm
01:20 PM 73.6°F23.1°C 54.9°F12.7°C 52% 4.0 mph NW6.4 kmh NW 9.0 mph14.5 kmh 30.13 in1020.3 mb 0.00 in0.0 mm 0.00 in0.0 mm 0.05 in1.3 mm
01:10 PM 73.6°F23.1°C 55.9°F13.3°C 54% 3.0 mph NW4.8 kmh NW 11.0 mph17.7 kmh 30.13 in1020.3 mb 0.00 in0.0 mm 0.00 in0.0 mm 0.05 in1.3 mm
01:00 PM 72.3°F22.4°C 55.2°F12.9°C 55% 3.0 mph NW4.8 kmh NW 8.0 mph12.9 kmh 30.13 in1020.3 mb 0.00 in0.0 mm 0.00 in0.0 mm 0.05 in1.3 mm
12:50 PM 71.8°F22.1°C 55.2°F12.9°C 56% 4.0 mph NW6.4 kmh NW 10.0 mph16.1 kmh 30.13 in1020.3 mb 0.00 in0.0 mm 0.00 in0.0 mm 0.05 in1.3 mm
12:40 PM 73.0°F22.8°C 55.9°F13.3°C 55% 4.0 mph NW6.4 kmh NW 11.0 mph17.7 kmh 30.13 in1020.3 mb 0.00 in0.0 mm 0.00 in0.0 mm 0.05 in1.3 mm
12:30 PM 72.0°F22.2°C 55.9°F13.3°C 57% 4.0 mph WNW6.4 kmh WNW 8.0 mph12.9 kmh 30.13 in1020.3 mb 0.00 in0.0 mm 0.00 in0.0 mm 0.05 in1.3 mm
12:20 PM 72.0°F22.2°C 55.4°F13.0°C 56% 2.0 mph NW3.2 kmh NW 8.0 mph12.9 kmh 30.13 in1020.3 mb 0.00 in0.0 mm 0.00 in0.0 mm 0.05 in1.3 mm
12:10 PM 71.2°F21.8°C 55.7°F13.2°C 58% 3.0 mph NW4.8 kmh NW 6.0 mph9.7 kmh 30.13 in1020.3 mb 0.00 in0.0 mm 0.00 in0.0 mm 0.05 in1.3 mm
12:00 PM 71.6°F22.0°C 55.6°F13.1°C 57% 4.0 mph NW6.4 kmh NW 8.0 mph12.9 kmh 30.13 in1020.3 mb 0.00 in0.0 mm 0.00 in0.0 mm 0.05 in1.3 mm
11:50 AM 70.3°F21.3°C 55.8°F13.2°C 60% 2.0 mph WNW3.2 kmh WNW 6.0 mph9.7 kmh 30.13 in1020.3 mb 0.00 in0.0 mm 0.00 in0.0 mm 0.05 in1.3 mm
11:40 AM 70.2°F21.2°C 55.2°F12.9°C 59% 4.0 mph NW6.4 kmh NW 9.0 mph14.5 kmh 30.12 in1020.0 mb 0.00 in0.0 mm 0.00 in0.0 mm 0.05 in1.3 mm
11:30 AM 70.9°F21.6°C 55.8°F13.2°C 59% 3.0 mph NW4.8 kmh NW 7.0 mph11.3 kmh 30.12 in1020.0 mb 0.00 in0.0 mm 0.00 in0.0 mm 0.05 in1.3 mm
11:20 AM 69.8°F21.0°C 54.8°F12.7°C 59% 3.0 mph WNW4.8 kmh WNW 9.0 mph14.5 kmh 30.12 in1020.0 mb 0.00 in0.0 mm 0.00 in0.0 mm 0.05 in1.3 mm
11:10 AM 70.3°F21.3°C 56.2°F13.4°C 61% 3.0 mph NW4.8 kmh NW 7.0 mph11.3 kmh 30.12 in1020.0 mb 0.00 in0.0 mm 0.00 in0.0 mm 0.05 in1.3 mm
11:00 AM 69.8°F21.0°C 55.7°F13.2°C 61% 4.0 mph NW6.4 kmh NW 11.0 mph17.7 kmh 30.12 in1020.0 mb 0.00 in0.0 mm 0.00 in0.0 mm 0.05 in1.3 mm
10:50 AM 70.9°F21.6°C 58.1°F14.5°C 64% 3.0 mph NW4.8 kmh NW 7.0 mph11.3 kmh 30.12 in1020.0 mb 0.00 in0.0 mm 0.00 in0.0 mm 0.05 in1.3 mm
10:40 AM 70.2°F21.2°C 57.4°F14.1°C 64% 3.0 mph NW4.8 kmh NW 8.0 mph12.9 kmh 30.12 in1020.0 mb 0.00 in0.0 mm 0.00 in0.0 mm 0.05 in1.3 mm
10:30 AM 69.4°F20.8°C 58.8°F14.9°C 69% 2.0 mph NW3.2 kmh NW 6.0 mph9.7 kmh 30.12 in1020.0 mb 0.00 in0.0 mm 0.00 in0.0 mm 0.05 in1.3 mm
10:20 AM 69.1°F20.6°C 59.7°F15.4°C 72% 3.0 mph NW4.8 kmh NW 7.0 mph11.3 kmh 30.11 in1019.6 mb 0.00 in0.0 mm 0.00 in0.0 mm 0.05 in1.3 mm
10:10 AM 68.7°F20.4°C 59.7°F15.4°C 73% 3.0 mph NW4.8 kmh NW 6.0 mph9.7 kmh 30.11 in1019.6 mb 0.00 in0.0 mm 0.00 in0.0 mm 0.05 in1.3 mm
10:00 AM 68.0°F20.0°C 59.8°F15.4°C 75% 3.0 mph NW4.8 kmh NW 6.0 mph9.7 kmh 30.11 in1019.6 mb 0.00 in0.0 mm 0.00 in0.0 mm 0.05 in1.3 mm
09:50 AM 67.6°F19.8°C 60.2°F15.7°C 77% 3.0 mph NW4.8 kmh NW 7.0 mph11.3 kmh 30.11 in1019.6 mb 0.00 in0.0 mm 0.00 in0.0 mm 0.05 in1.3 mm
09:40 AM 66.9°F19.4°C 59.8°F15.4°C 78% 2.0 mph NW3.2 kmh NW 7.0 mph11.3 kmh 30.11 in1019.6 mb 0.00 in0.0 mm 0.00 in0.0 mm 0.05 in1.3 mm
09:30 AM 66.6°F19.2°C 59.8°F15.4°C 79% 3.0 mph NW4.8 kmh NW 7.0 mph11.3 kmh 30.11 in1019.6 mb 0.00 in0.0 mm 0.00 in0.0 mm 0.05 in1.3 mm
09:20 AM 65.8°F18.8°C 59.8°F15.4°C 81% 3.0 mph NW4.8 kmh NW 6.0 mph9.7 kmh 30.10 in1019.3 mb 0.00 in0.0 mm 0.00 in0.0 mm 0.05 in1.3 mm
09:10 AM 65.5°F18.6°C 59.8°F15.4°C 82% 3.0 mph NNW4.8 kmh NNW 7.0 mph11.3 kmh 30.10 in1019.3 mb 0.00 in0.0 mm 0.00 in0.0 mm 0.05 in1.3 mm
09:00 AM 64.9°F18.3°C 59.7°F15.4°C 83% 3.0 mph NW4.8 kmh NW 7.0 mph11.3 kmh 30.10 in1019.3 mb 0.00 in0.0 mm 0.00 in0.0 mm 0.05 in1.3 mm
08:50 AM 64.6°F18.1°C 60.0°F15.6°C 85% 3.0 mph NW4.8 kmh NW 8.0 mph12.9 kmh 30.09 in1019.0 mb 0.00 in0.0 mm 0.00 in0.0 mm 0.05 in1.3 mm
08:40 AM 63.7°F17.6°C 59.7°F15.4°C 87% 2.0 mph NNW3.2 kmh NNW 7.0 mph11.3 kmh 30.09 in1019.0 mb 0.00 in0.0 mm 0.00 in0.0 mm 0.05 in1.3 mm
08:30 AM 63.0°F17.2°C 59.3°F15.2°C 88% 3.0 mph NW4.8 kmh NW 7.0 mph11.3 kmh 30.09 in1019.0 mb 0.00 in0.0 mm 0.00 in0.0 mm 0.05 in1.3 mm
08:20 AM 62.1°F16.7°C 59.1°F15.1°C 90% 3.0 mph NW4.8 kmh NW 7.0 mph11.3 kmh 30.08 in1018.6 mb 0.00 in0.0 mm 0.00 in0.0 mm 0.05 in1.3 mm
08:10 AM 61.3°F16.3°C 58.7°F14.8°C 91% 4.0 mph NW6.4 kmh NW 6.0 mph9.7 kmh 30.08 in1018.6 mb 0.00 in0.0 mm 0.00 in0.0 mm 0.05 in1.3 mm
08:00 AM 60.6°F15.9°C 58.3°F14.6°C 92% 2.0 mph NW3.2 kmh NW 6.0 mph9.7 kmh 30.08 in1018.6 mb 0.00 in0.0 mm 0.00 in0.0 mm 0.05 in1.3 mm
07:50 AM 59.9°F15.5°C 57.9°F14.4°C 93% 3.0 mph NW4.8 kmh NW 6.0 mph9.7 kmh 30.08 in1018.6 mb 0.00 in0.0 mm 0.00 in0.0 mm 0.05 in1.3 mm
07:40 AM 59.2°F15.1°C 57.5°F14.2°C 94% 2.0 mph NW3.2 kmh NW 6.0 mph9.7 kmh 30.08 in1018.6 mb 0.00 in0.0 mm 0.00 in0.0 mm 0.05 in1.3 mm
07:30 AM 58.3°F14.6°C 56.9°F13.8°C 95% 2.0 mph NW3.2 kmh NW 5.0 mph8.0 kmh 30.07 in1018.3 mb 0.00 in0.0 mm 0.00 in0.0 mm 0.05 in1.3 mm
07:20 AM 57.4°F14.1°C 56.0°F13.3°C 95% 1.0 mph NW1.6 kmh NW 5.0 mph8.0 kmh 30.07 in1018.3 mb 0.00 in0.0 mm 0.00 in0.0 mm 0.05 in1.3 mm
07:10 AM 56.1°F13.4°C 54.7°F12.6°C 95% Calm Calm 2.0 mph3.2 kmh 30.07 in1018.3 mb 0.00 in0.0 mm 0.00 in0.0 mm 0.05 in1.3 mm
07:00 AM 55.4°F13.0°C 53.7°F12.1°C 94% Calm Calm 1.0 mph1.6 kmh 30.07 in1018.3 mb 0.00 in0.0 mm 0.00 in0.0 mm 0.05 in1.3 mm
06:50 AM 55.4°F13.0°C 53.7°F12.1°C 94% Calm Calm 1.0 mph1.6 kmh 30.07 in1018.3 mb 0.00 in0.0 mm 0.00 in0.0 mm 0.05 in1.3 mm
06:40 AM 55.6°F13.1°C 53.9°F12.2°C 94% Calm Calm 2.0 mph3.2 kmh 30.07 in1018.3 mb 0.00 in0.0 mm 0.00 in0.0 mm 0.05 in1.3 mm
06:30 AM 55.6°F13.1°C 53.9°F12.2°C 94% 1.0 mph NW1.6 kmh NW 2.0 mph3.2 kmh 30.06 in1017.9 mb 0.00 in0.0 mm 0.00 in0.0 mm 0.05 in1.3 mm
06:20 AM 55.4°F13.0°C 53.7°F12.1°C 94% Calm Calm 2.0 mph3.2 kmh 30.06 in1017.9 mb 0.00 in0.0 mm 0.00 in0.0 mm 0.05 in1.3 mm
06:10 AM 55.8°F13.2°C 54.1°F12.3°C 94% Calm Calm 1.0 mph1.6 kmh 30.06 in1017.9 mb 0.00 in0.0 mm 0.00 in0.0 mm 0.05 in1.3 mm
06:00 AM 55.9°F13.3°C 54.2°F12.3°C 94% Calm Calm 2.0 mph3.2 kmh 30.06 in1017.9 mb 0.00 in0.0 mm 0.00 in0.0 mm 0.05 in1.3 mm
05:50 AM 56.1°F13.4°C 54.4°F12.4°C 94% Calm Calm 2.0 mph3.2 kmh 30.05 in1017.6 mb 0.00 in0.0 mm 0.00 in0.0 mm 0.05 in1.3 mm
05:40 AM 56.3°F13.5°C 54.6°F12.6°C 94% 1.0 mph WNW1.6 kmh WNW 3.0 mph4.8 kmh 30.05 in1017.6 mb 0.00 in0.0 mm 0.00 in0.0 mm 0.05 in1.3 mm
05:30 AM 56.1°F13.4°C 54.4°F12.4°C 94% 1.0 mph WNW1.6 kmh WNW 3.0 mph4.8 kmh 30.04 in1017.3 mb 0.00 in0.0 mm 0.00 in0.0 mm 0.05 in1.3 mm
05:20 AM 56.1°F13.4°C 54.4°F12.4°C 94% 1.0 mph NW1.6 kmh NW 3.0 mph4.8 kmh 30.04 in1017.3 mb 0.00 in0.0 mm 0.00 in0.0 mm 0.05 in1.3 mm
05:10 AM 56.3°F13.5°C 54.3°F12.4°C 93% Calm Calm 1.0 mph1.6 kmh 30.03 in1016.9 mb 0.00 in0.0 mm 0.00 in0.0 mm 0.05 in1.3 mm
05:00 AM 56.5°F13.6°C 54.5°F12.5°C 93% Calm Calm 2.0 mph3.2 kmh 30.03 in1016.9 mb 0.00 in0.0 mm 0.00 in0.0 mm 0.05 in1.3 mm
04:50 AM 56.5°F13.6°C 54.5°F12.5°C 93% Calm Calm 2.0 mph3.2 kmh 30.03 in1016.9 mb 0.00 in0.0 mm 0.00 in0.0 mm 0.05 in1.3 mm
04:40 AM 56.5°F13.6°C 54.5°F12.5°C 93% Calm Calm 2.0 mph3.2 kmh 30.03 in1016.9 mb 0.00 in0.0 mm 0.00 in0.0 mm 0.05 in1.3 mm
04:30 AM 56.5°F13.6°C 54.5°F12.5°C 93% 1.0 mph NW1.6 kmh NW 2.0 mph3.2 kmh 30.03 in1016.9 mb 0.00 in0.0 mm 0.00 in0.0 mm 0.05 in1.3 mm
04:20 AM 56.3°F13.5°C 54.3°F12.4°C 93% Calm Calm -- 30.03 in1016.9 mb 0.00 in0.0 mm 0.00 in0.0 mm 0.05 in1.3 mm
04:10 AM 56.1°F13.4°C 54.1°F12.3°C 93% Calm Calm 1.0 mph1.6 kmh 30.03 in1016.9 mb 0.00 in0.0 mm 0.00 in0.0 mm 0.05 in1.3 mm
04:00 AM 56.3°F13.5°C 54.0°F12.2°C 92% Calm Calm 1.0 mph1.6 kmh 30.02 in1016.6 mb 0.00 in0.0 mm 0.00 in0.0 mm 0.05 in1.3 mm
03:50 AM 56.5°F13.6°C 54.2°F12.3°C 92% Calm Calm 1.0 mph1.6 kmh 30.03 in1016.9 mb 0.00 in0.0 mm 0.00 in0.0 mm 0.05 in1.3 mm
03:40 AM 56.7°F13.7°C 54.4°F12.4°C 92% Calm Calm 2.0 mph3.2 kmh 30.03 in1016.9 mb 0.00 in0.0 mm 0.00 in0.0 mm 0.05 in1.3 mm
03:30 AM 56.8°F13.8°C 54.5°F12.5°C 92% Calm Calm 2.0 mph3.2 kmh 30.03 in1016.9 mb 0.00 in0.0 mm 0.00 in0.0 mm 0.05 in1.3 mm
03:20 AM 57.0°F13.9°C 54.7°F12.6°C 92% 1.0 mph NW1.6 kmh NW 2.0 mph3.2 kmh 30.03 in1016.9 mb 0.00 in0.0 mm 0.00 in0.0 mm 0.05 in1.3 mm
03:10 AM 57.0°F13.9°C 54.7°F12.6°C 92% Calm Calm 2.0 mph3.2 kmh 30.02 in1016.6 mb 0.00 in0.0 mm 0.00 in0.0 mm 0.05 in1.3 mm
03:00 AM 57.4°F14.1°C 55.1°F12.8°C 92% Calm Calm 3.0 mph4.8 kmh 30.03 in1016.9 mb 0.00 in0.0 mm 0.00 in0.0 mm 0.05 in1.3 mm
02:50 AM 57.4°F14.1°C 55.1°F12.8°C 92% 1.0 mph NNW1.6 kmh NNW 2.0 mph3.2 kmh 30.03 in1016.9 mb 0.00 in0.0 mm 0.00 in0.0 mm 0.05 in1.3 mm
02:40 AM 57.6°F14.2°C 55.3°F12.9°C 92% 1.0 mph NW1.6 kmh NW 3.0 mph4.8 kmh 30.02 in1016.6 mb 0.00 in0.0 mm 0.00 in0.0 mm 0.05 in1.3 mm
02:30 AM 57.7°F14.3°C 55.7°F13.2°C 93% 1.0 mph NW1.6 kmh NW 3.0 mph4.8 kmh 30.02 in1016.6 mb 0.00 in0.0 mm 0.00 in0.0 mm 0.05 in1.3 mm
02:20 AM 57.9°F14.4°C 55.6°F13.1°C 92% 2.0 mph NW3.2 kmh NW 6.0 mph9.7 kmh 30.01 in1016.3 mb 0.00 in0.0 mm 0.00 in0.0 mm 0.05 in1.3 mm
02:10 AM 58.3°F14.6°C 56.0°F13.3°C 92% 2.0 mph NW3.2 kmh NW 5.0 mph8.0 kmh 30.01 in1016.3 mb 0.01 in0.3 mm 0.00 in0.0 mm 0.05 in1.3 mm
02:00 AM 58.3°F14.6°C 56.0°F13.3°C 92% 2.0 mph NW3.2 kmh NW 6.0 mph9.7 kmh 30.02 in1016.6 mb 0.01 in0.3 mm 0.00 in0.0 mm 0.05 in1.3 mm
01:50 AM 58.5°F14.7°C 56.1°F13.4°C 92% 2.0 mph NNW3.2 kmh NNW 6.0 mph9.7 kmh 30.00 in1015.9 mb 0.01 in0.3 mm 0.00 in0.0 mm 0.05 in1.3 mm
01:40 AM 58.6°F14.8°C 56.3°F13.5°C 92% 3.0 mph NW4.8 kmh NW 7.0 mph11.3 kmh 30.02 in1016.6 mb 0.01 in0.3 mm 0.00 in0.0 mm 0.05 in1.3 mm
01:30 AM 58.6°F14.8°C 56.3°F13.5°C 92% 4.0 mph NW6.4 kmh NW 7.0 mph11.3 kmh 30.02 in1016.6 mb 0.01 in0.3 mm 0.00 in0.0 mm 0.05 in1.3 mm
01:20 AM 60.3°F15.7°C 58.2°F14.6°C 93% 2.0 mph NW3.2 kmh NW 6.0 mph9.7 kmh 30.01 in1016.3 mb 0.01 in0.3 mm 0.06 in1.5 mm 0.05 in1.3 mm
01:10 AM 60.4°F15.8°C 58.7°F14.8°C 94% 3.0 mph NW4.8 kmh NW 7.0 mph11.3 kmh 30.01 in1016.3 mb 0.00 in0.0 mm 0.00 in0.0 mm 0.04 in1.0 mm
01:00 AM 60.6°F15.9°C 58.9°F14.9°C 94% 3.0 mph NW4.8 kmh NW 7.0 mph11.3 kmh 30.02 in1016.6 mb 0.00 in0.0 mm 0.00 in0.0 mm 0.04 in1.0 mm
12:50 AM 60.6°F15.9°C 58.9°F14.9°C 94% 1.0 mph N1.6 kmh N 3.0 mph4.8 kmh 30.01 in1016.3 mb 0.01 in0.3 mm 0.00 in0.0 mm 0.04 in1.0 mm
12:40 AM 60.6°F15.9°C 58.9°F14.9°C 94% 1.0 mph N1.6 kmh N 4.0 mph6.4 kmh 30.00 in1015.9 mb 0.02 in0.5 mm 0.00 in0.0 mm 0.04 in1.0 mm
12:30 AM 61.0°F16.1°C 58.9°F14.9°C 93% 2.0 mph NW3.2 kmh NW 5.0 mph8.0 kmh 30.00 in1015.9 mb 0.03 in0.8 mm 0.00 in0.0 mm 0.04 in1.0 mm
12:20 AM 61.0°F16.1°C 58.9°F14.9°C 93% 3.0 mph NW4.8 kmh NW 8.0 mph12.9 kmh 30.01 in1016.3 mb 0.04 in1.0 mm 0.00 in0.0 mm 0.04 in1.0 mm
12:10 AM 61.2°F16.2°C 59.1°F15.1°C 93% 3.0 mph NW4.8 kmh NW 6.0 mph9.7 kmh 30.01 in1016.3 mb 0.04 in1.0 mm 0.00 in0.0 mm 0.04 in1.0 mm
12:00 AM 61.5°F16.4°C 59.5°F15.3°C 93% 2.0 mph NW3.2 kmh NW 5.0 mph8.0 kmh 30.02 in1016.6 mb 0.04 in1.0 mm 0.00 in0.0 mm 0.04 in1.0 mm